createdAt,value
2019-01-25T00:05:19.501Z,62.83
2019-01-25T00:11:25.235Z,62.75
2019-01-25T00:17:30.920Z,62.67
2019-01-25T00:23:36.611Z,62.50
2019-01-25T00:29:42.314Z,62.35
2019-01-25T00:35:48.105Z,62.18
2019-01-25T00:41:53.950Z,62.40
2019-01-25T00:47:59.786Z,63.07
2019-01-25T00:54:06.099Z,62.78
2019-01-25T01:00:17.437Z,62.88
2019-01-25T01:06:23.374Z,62.87
2019-01-25T01:12:29.080Z,63.55
2019-01-25T01:18:35.134Z,63.26
2019-01-25T01:24:40.954Z,63.25
2019-01-25T01:30:46.641Z,63.42
2019-01-25T01:36:52.400Z,63.08
2019-01-25T01:42:58.072Z,63.36
2019-01-25T01:49:04.011Z,63.38
2019-01-25T01:55:10.341Z,63.65
2019-01-25T02:01:16.127Z,63.66
2019-01-25T02:07:21.904Z,63.65
2019-01-25T02:13:27.734Z,63.73
2019-01-25T02:19:33.414Z,63.32
2019-01-25T02:25:39.137Z,63.26
2019-01-25T02:31:44.876Z,63.18
2019-01-25T02:37:50.988Z,63.06
2019-01-25T02:43:56.652Z,63.37
2019-01-25T02:50:02.463Z,63.81
2019-01-25T02:56:08.486Z,64.08
2019-01-25T03:02:14.456Z,63.94
2019-01-25T03:08:20.502Z,64.18
2019-01-25T03:14:26.218Z,64.27
2019-01-25T03:20:32.053Z,63.97
2019-01-25T03:26:38.345Z,63.46
2019-01-25T03:32:44.070Z,63.17
2019-01-25T03:38:49.781Z,63.25
2019-01-25T03:44:55.465Z,63.00
2019-01-25T03:51:01.172Z,63.03
2019-01-25T03:57:06.979Z,62.75
2019-01-25T04:03:12.857Z,62.90
2019-01-25T04:09:22.505Z,63.31
2019-01-25T04:15:31.608Z,63.11
2019-01-25T04:21:37.319Z,62.90
2019-01-25T04:27:43.121Z,62.92
2019-01-25T04:33:48.830Z,62.22
2019-01-25T04:39:54.650Z,61.60
2019-01-25T04:46:00.508Z,61.44
2019-01-25T04:52:13.834Z,61.43
2019-01-25T04:58:20.623Z,61.38
2019-01-25T05:04:28.329Z,61.53
2019-01-25T05:10:34.210Z,62.10
2019-01-25T05:16:40.159Z,62.24
2019-01-25T05:22:46.075Z,63.25
2019-01-25T05:28:52.033Z,63.55
2019-01-25T05:34:58.014Z,63.22
2019-01-25T05:41:04.069Z,63.18
2019-01-25T05:47:12.027Z,63.18
2019-01-25T05:53:18.004Z,63.30
2019-01-25T05:59:26.190Z,63.43
2019-01-25T06:05:32.221Z,63.59
2019-01-25T06:11:39.359Z,63.77
2019-01-25T06:17:45.240Z,63.87
2019-01-25T06:23:55.025Z,64.06
2019-01-25T06:30:00.818Z,63.85
2019-01-25T06:36:08.370Z,63.93
2019-01-25T06:42:14.371Z,64.12
2019-01-25T06:48:20.875Z,64.24
2019-01-25T06:54:26.838Z,64.42
2019-01-25T07:00:34.932Z,64.89
2019-01-25T07:06:40.760Z,66.01
2019-01-25T07:12:46.651Z,66.43
2019-01-25T07:18:52.436Z,66.97
2019-01-25T07:24:58.265Z,67.17
2019-01-25T07:31:04.114Z,67.36
2019-01-25T07:37:09.867Z,67.87
2019-01-25T07:43:15.855Z,67.94
2019-01-25T07:49:21.809Z,68.12
2019-01-25T07:55:33.768Z,68.04
2019-01-25T08:01:40.144Z,68.13
2019-01-25T08:07:45.867Z,68.58
2019-01-25T08:13:51.769Z,68.93
2019-01-25T08:19:59.218Z,69.32
2019-01-25T08:26:05.463Z,69.54
2019-01-25T08:32:11.316Z,68.93
2019-01-25T08:38:17.585Z,68.45
2019-01-25T08:44:23.551Z,68.11
2019-01-25T08:50:29.416Z,68.51
2019-01-25T08:56:35.425Z,68.24
2019-01-25T09:02:41.599Z,67.70
2019-01-25T09:08:47.822Z,67.40
2019-01-25T09:14:54.088Z,67.14
2019-01-25T09:20:59.999Z,67.06
2019-01-25T09:27:06.061Z,67.20
2019-01-25T09:33:11.891Z,67.11
2019-01-25T09:39:17.883Z,66.48
2019-01-25T09:45:23.870Z,66.13
2019-01-25T09:51:29.732Z,66.36
2019-01-25T09:57:35.871Z,65.94
2019-01-25T10:03:42.019Z,65.56
2019-01-25T10:09:47.894Z,65.48
2019-01-25T10:15:54.621Z,65.33
2019-01-25T10:22:00.666Z,64.95
2019-01-25T10:28:06.492Z,64.88
2019-01-25T10:34:12.502Z,64.67
2019-01-25T10:40:19.998Z,64.41
2019-01-25T10:46:26.114Z,64.29
2019-01-25T10:52:32.131Z,64.40
2019-01-25T10:58:37.910Z,64.58
2019-01-25T11:04:49.810Z,64.77
2019-01-25T11:10:55.730Z,64.49
2019-01-25T11:17:01.734Z,64.34
2019-01-25T11:23:07.577Z,64.51
2019-01-25T11:29:13.379Z,64.78
2019-01-25T11:35:19.500Z,64.88
2019-01-25T11:41:25.676Z,64.93
2019-01-25T11:47:31.551Z,64.88
2019-01-25T11:53:37.971Z,65.03
2019-01-25T11:59:44.451Z,65.23
2019-01-25T12:05:50.272Z,65.18
2019-01-25T12:11:56.046Z,65.22
2019-01-25T12:18:02.125Z,65.01
2019-01-25T12:24:08.386Z,64.40
2019-01-25T12:30:45.482Z,64.04
2019-01-25T12:36:51.160Z,63.82
2019-01-25T12:42:58.169Z,63.56
2019-01-25T12:49:04.005Z,63.22
2019-01-25T12:55:10.546Z,63.09
2019-01-25T13:01:17.814Z,63.00
2019-01-25T13:07:23.792Z,62.78
2019-01-25T13:13:31.701Z,62.43
2019-01-25T13:19:37.527Z,62.30
2019-01-25T13:25:47.295Z,62.10
2019-01-25T13:31:51.776Z,61.68
2019-01-25T13:37:57.716Z,61.44
2019-01-25T13:44:03.873Z,61.37
2019-01-25T13:50:13.116Z,60.86
2019-01-25T13:56:19.312Z,60.90
2019-01-25T14:02:25.557Z,60.92
2019-01-25T14:08:34.011Z,60.50
2019-01-25T14:14:40.249Z,60.38
2019-01-25T14:20:50.348Z,60.47
2019-01-25T14:26:56.128Z,60.44
2019-01-25T14:33:02.167Z,60.28
2019-01-25T14:39:09.964Z,60.27
2019-01-25T14:45:16.647Z,60.25
2019-01-25T14:51:22.558Z,60.31
2019-01-25T14:57:28.476Z,60.30
2019-01-25T15:03:36.345Z,60.37
2019-01-25T15:09:42.099Z,60.47
2019-01-25T15:15:48.467Z,60.40
2019-01-25T15:21:54.564Z,60.45
2019-01-25T15:28:03.915Z,60.61
2019-01-25T15:34:16.517Z,60.72
2019-01-25T15:40:24.345Z,60.78
2019-01-25T15:46:30.345Z,60.94
2019-01-25T15:52:38.142Z,61.38
2019-01-25T15:58:44.079Z,62.61
2019-01-25T16:04:49.939Z,63.65
2019-01-25T16:10:56.060Z,64.76
2019-01-25T16:17:02.145Z,65.60
2019-01-25T16:23:08.060Z,66.52
2019-01-25T16:29:14.193Z,67.27
2019-01-25T16:35:20.083Z,68.21
2019-01-25T16:41:26.410Z,68.82
2019-01-25T16:47:33.353Z,69.37
2019-01-25T16:53:39.258Z,69.97
2019-01-25T16:59:45.167Z,70.28
2019-01-25T17:05:51.200Z,70.52
2019-01-25T17:11:57.016Z,70.70
2019-01-25T17:18:02.812Z,70.89
2019-01-25T17:24:08.612Z,71.01
2019-01-25T17:30:27.139Z,71.20
2019-01-25T17:36:33.236Z,71.33
2019-01-25T17:42:39.023Z,71.56
2019-01-25T17:48:45.054Z,71.77
2019-01-25T17:54:50.984Z,72.16
2019-01-25T18:00:57.485Z,72.44
2019-01-25T18:07:03.576Z,72.43
2019-01-25T18:13:09.434Z,72.42
2019-01-25T18:19:15.510Z,72.71
2019-01-25T18:25:44.503Z,72.74
2019-01-25T18:31:50.315Z,72.81
2019-01-25T18:37:56.283Z,72.95
2019-01-25T18:44:02.124Z,73.14
2019-01-25T18:50:10.406Z,73.24
2019-01-25T18:56:21.110Z,73.31
2019-01-25T19:02:28.965Z,73.39
2019-01-25T19:08:34.804Z,73.49
2019-01-25T19:14:46.125Z,73.49
2019-01-25T19:20:54.445Z,73.52
2019-01-25T19:27:01.128Z,73.56
2019-01-25T19:33:07.623Z,73.61
2019-01-25T19:39:17.300Z,73.63
2019-01-25T19:45:25.505Z,73.76
2019-01-25T19:51:31.355Z,73.75
2019-01-25T19:57:37.137Z,73.83
2019-01-25T20:03:43.179Z,73.92
2019-01-25T20:09:54.267Z,73.95
2019-01-25T20:16:00.236Z,73.88
2019-01-25T20:22:06.872Z,73.75
2019-01-25T20:28:13.042Z,73.86
2019-01-25T20:34:21.756Z,73.94
2019-01-25T20:40:27.616Z,74.01
2019-01-25T20:46:33.602Z,73.94
2019-01-25T20:52:40.604Z,74.00
2019-01-25T20:58:48.026Z,74.01
2019-01-25T21:04:54.761Z,74.03
2019-01-25T21:11:04.868Z,73.93
2019-01-25T21:17:11.956Z,73.89
2019-01-25T21:23:21.712Z,73.98
2019-01-25T21:29:30.170Z,74.04
2019-01-25T21:35:36.167Z,74.01
2019-01-25T21:41:41.882Z,74.22
2019-01-25T21:47:47.907Z,74.43
2019-01-25T21:53:53.799Z,74.55
2019-01-25T21:59:59.669Z,74.68
2019-01-25T22:06:06.257Z,74.69
2019-01-25T22:12:12.133Z,74.82
2019-01-25T22:18:18.081Z,74.72
2019-01-25T22:24:23.888Z,74.69
2019-01-25T22:30:29.910Z,74.69
2019-01-25T22:36:35.724Z,74.81
2019-01-25T22:42:41.516Z,74.98
2019-01-25T22:48:47.273Z,75.16
2019-01-25T22:54:53.145Z,75.34
2019-01-25T23:01:12.026Z,75.48
2019-01-25T23:07:27.641Z,75.73
2019-01-25T23:13:33.363Z,75.85
2019-01-25T23:19:39.197Z,75.93
2019-01-25T23:25:45.280Z,75.84
2019-01-25T23:31:52.902Z,75.84
2019-01-25T23:37:59.006Z,75.73
2019-01-25T23:44:05.132Z,75.83
2019-01-25T23:50:13.370Z,75.88
2019-01-25T23:56:19.176Z,75.93
